Time;durP1;ratioP1;P1;durP2;ratioP2;P2;SDS_P1;SDS_P2;PMS_P1;PMS_P2;Temp;Humidity;BMP_temperature;BMP_pressure;BME280_temperature;BME280_humidity;BME280_pressure;Samples;Min_cycle;Max_cycle;Signal;HPM_P1;HPM_P2
2021/12/07 00:01:29;;;;;;;18.60;6.80;;;;;;;1.15;91.23;100325.94;5042229;28;20387;-77
2021/12/07 00:03:55;;;;;;;20.88;7.22;;;;;;;1.15;91.13;100325.94;5036371;28;20112;-77
2021/12/07 00:06:21;;;;;;;20.08;7.65;;;;;;;1.19;91.45;100332.84;5035776;28;20596;-77
2021/12/07 00:08:49;;;;;;;20.65;7.55;;;;;;;1.23;92.15;100338.88;5041287;28;20500;-77
2021/12/07 00:11:14;;;;;;;20.25;7.35;;;;;;;1.25;91.55;100342.31;5045866;28;20025;-77
2021/12/07 00:13:42;;;;;;;19.95;8.15;;;;;;;1.26;91.59;100333.44;5050236;28;20047;-77
2021/12/07 00:16:10;;;;;;;22.20;8.40;;;;;;;1.30;91.99;100328.88;5049204;28;20029;-77
2021/12/07 00:18:37;;;;;;;22.20;7.95;;;;;;;1.32;91.70;100343.75;5044152;28;20041;-77
2021/12/07 00:21:05;;;;;;;21.13;8.55;;;;;;;1.33;91.60;100345.50;5041446;28;20071;-77
2021/12/07 00:23:32;;;;;;;21.48;8.48;;;;;;;1.35;91.86;100340.13;5034115;28;20504;-77
2021/12/07 00:25:57;;;;;;;19.88;7.88;;;;;;;1.38;91.85;100348.78;5037299;28;20033;-77
2021/12/07 00:28:23;;;;;;;20.70;8.75;;;;;;;1.40;92.18;100348.72;5039010;28;20482;-77
2021/12/07 00:30:50;;;;;;;32.30;8.90;;;;;;;1.44;92.10;100355.59;5060004;28;20455;-77
2021/12/07 00:33:42;;;;;;;23.67;10.38;;;;;;;1.48;92.52;100358.97;5042429;28;20056;-77
2021/12/07 00:36:04;;;;;;;21.05;9.05;;;;;;;1.51;92.55;100353.56;5046901;28;20427;-77
2021/12/07 00:38:30;;;;;;;23.13;9.95;;;;;;;1.53;92.56;100362.28;5050946;28;20037;-77
2021/12/07 00:40:57;;;;;;;22.00;9.98;;;;;;;1.57;92.85;100366.53;5041672;28;20022;-77
2021/12/07 00:43:25;;;;;;;28.90;12.82;;;;;;;1.60;93.21;100379.63;5033101;28;20062;-77
2021/12/07 00:45:51;;;;;;;21.88;9.25;;;;;;;1.68;93.22;100372.19;5031919;28;20111;-77
2021/12/07 00:48:17;;;;;;;24.05;10.45;;;;;;;1.70;93.40;100373.00;5052358;28;20020;-77
2021/12/07 00:50:46;;;;;;;27.05;12.60;;;;;;;1.74;94.08;100371.06;5036875;28;20029;-77
2021/12/07 00:53:12;;;;;;;27.50;11.32;;;;;;;1.80;93.78;100383.19;5044265;28;20028;-77
2021/12/07 00:55:43;;;;;;;23.92;10.30;;;;;;;1.83;94.51;100389.22;5042745;28;20112;-77
2021/12/07 00:58:17;;;;;;;27.98;11.23;;;;;;;1.92;94.03;100393.25;5048081;28;20093;-77
2021/12/07 01:00:44;;;;;;;27.30;11.40;;;;;;;1.99;94.31;100386.75;5035054;28;20025;-77
2021/12/07 01:03:09;;;;;;;25.40;11.48;;;;;;;2.06;94.58;100397.94;5039509;28;20065;-77
2021/12/07 01:05:36;;;;;;;25.85;11.45;;;;;;;2.12;94.92;100408.25;5046331;28;20091;-77
2021/12/07 01:27:02;;;;;;;22.65;8.55;;;;;;;2.50;94.13;100450.72;5032267;28;20099;-77
2021/12/07 01:29:27;;;;;;;27.13;9.35;;;;;;;2.53;94.16;100450.56;5047933;28;20033;-77
2021/12/07 01:32:15;;;;;;;28.25;9.80;;;;;;;2.53;93.99;100455.03;5045544;28;20389;-77
2021/12/07 01:40:33;;;;;;;22.85;8.52;;;;;;;2.55;94.02;100461.97;5046821;28;20040;-77
2021/12/07 01:59:34;;;;;;;19.13;5.55;;;;;;;2.67;94.14;100483.59;4989716;28;20050;-77
2021/12/07 02:02:04;;;;;;;22.27;7.30;;;;;;;2.69;94.42;100489.66;4988335;28;20172;-77
2021/12/07 02:04:30;;;;;;;21.30;5.85;;;;;;;2.68;94.34;100486.16;5005026;28;20030;-77
2021/12/07 02:06:56;;;;;;;23.95;6.95;;;;;;;2.69;93.91;100487.84;4987879;28;20036;-77
2021/12/07 02:09:21;;;;;;;23.23;6.88;;;;;;;2.70;94.28;100505.50;4972756;28;20498;-77
2021/12/07 02:11:50;;;;;;;27.73;6.55;;;;;;;2.69;93.80;100503.78;4972519;28;20026;-77
2021/12/07 02:14:16;;;;;;;18.63;5.55;;;;;;;2.69;93.89;100506.44;4972389;28;20034;-77
2021/12/07 02:16:48;;;;;;;22.55;5.80;;;;;;;2.71;94.00;100515.19;4988103;28;20500;-77
2021/12/07 02:19:14;;;;;;;22.05;5.50;;;;;;;2.74;94.31;100515.06;4972426;28;20038;-77
2021/12/07 02:21:40;;;;;;;17.33;5.13;;;;;;;2.75;93.94;100513.25;4977556;28;20563;-77
2021/12/07 02:24:05;;;;;;;18.75;5.47;;;;;;;2.75;94.09;100522.09;5037842;28;20029;-77
2021/12/07 02:26:31;;;;;;;16.67;4.97;;;;;;;2.77;94.31;100528.19;5047047;28;20082;-77
2021/12/07 02:28:57;;;;;;;19.75;5.20;;;;;;;2.82;93.82;100532.44;5043504;28;20056;-77
2021/12/07 02:31:23;;;;;;;21.92;5.97;;;;;;;2.81;93.58;100531.53;5044878;28;20068;-77
2021/12/07 02:33:48;;;;;;;17.48;5.25;;;;;;;2.81;93.55;100531.53;5040114;28;20061;-77
2021/12/07 02:36:13;;;;;;;20.17;5.38;;;;;;;2.82;93.75;100535.06;5037912;28;20026;-77
2021/12/07 02:38:38;;;;;;;18.90;4.88;;;;;;;2.81;93.50;100539.50;5047584;28;20473;-77
2021/12/07 02:41:06;;;;;;;18.05;4.07;;;;;;;2.77;93.33;100533.50;5048532;28;20044;-77
2021/12/07 02:43:31;;;;;;;14.32;4.45;;;;;;;2.75;93.30;100535.38;5040379;28;20029;-77
2021/12/07 02:45:56;;;;;;;19.77;4.47;;;;;;;2.74;93.68;100549.56;5029636;28;20022;-77
2021/12/07 02:48:22;;;;;;;21.58;5.20;;;;;;;2.74;93.73;100548.72;5043217;28;20025;-77
2021/12/07 02:50:50;;;;;;;18.80;4.30;;;;;;;2.70;93.24;100561.22;5046020;28;20029;-77
2021/12/07 02:53:18;;;;;;;15.05;4.75;;;;;;;2.67;93.38;100566.69;5030727;28;20041;-77
2021/12/07 02:55:44;;;;;;;14.73;4.10;;;;;;;2.67;93.37;100568.50;5037209;28;20025;-77
2021/12/07 02:58:09;;;;;;;13.00;3.80;;;;;;;2.66;93.39;100572.06;5033108;28;20438;-77
2021/12/07 03:00:43;;;;;;;27.85;5.10;;;;;;;2.67;93.58;100579.94;5051390;28;20040;-77
2021/12/07 03:03:11;;;;;;;26.13;4.53;;;;;;;2.65;93.29;100584.47;5036029;28;20050;-77
2021/12/07 03:26:56;;;;;;;12.90;3.55;;;;;;;2.49;92.89;100608.16;5048041;28;20039;-77
2021/12/07 03:29:21;;;;;;;18.92;4.63;;;;;;;2.47;92.62;100610.00;5047296;28;20032;-77
2021/12/07 03:31:47;;;;;;;17.60;5.22;;;;;;;2.47;93.02;100606.50;5046329;28;20029;-77
2021/12/07 03:34:12;;;;;;;18.20;4.22;;;;;;;2.47;93.21;100611.81;5041547;28;20334;-77
2021/12/07 03:36:38;;;;;;;18.05;3.78;;;;;;;2.45;92.83;100619.84;5038352;28;20323;-77
2021/12/07 03:39:06;;;;;;;14.82;4.03;;;;;;;2.38;92.70;100627.19;5031193;28;20049;-77
2021/12/07 03:41:32;;;;;;;14.35;3.22;;;;;;;2.29;91.90;100630.22;5028577;28;20513;-77
2021/12/07 03:43:57;;;;;;;18.50;3.55;;;;;;;2.26;92.14;100639.16;5044345;28;20028;-77
2021/12/07 03:46:23;;;;;;;14.55;3.67;;;;;;;2.24;92.68;100645.47;5032091;28;20041;-77
2021/12/07 03:48:49;;;;;;;17.75;4.63;;;;;;;2.22;93.23;100645.53;5031069;28;20029;-77
2021/12/07 03:51:14;;;;;;;18.30;4.65;;;;;;;2.24;93.43;100651.66;5034388;28;20548;-77
2021/12/07 03:53:40;;;;;;;20.58;4.20;;;;;;;2.25;93.57;100639.25;5028473;28;20139;-77
2021/12/07 03:56:06;;;;;;;21.55;4.45;;;;;;;2.25;93.00;100648.03;5028160;28;20167;-77
2021/12/07 03:58:32;;;;;;;18.77;4.10;;;;;;;2.22;92.68;100652.63;5037809;28;20036;-77
2021/12/07 04:00:58;;;;;;;22.42;4.72;;;;;;;2.18;92.84;100651.03;5050007;28;20018;-77
2021/12/07 04:03:23;;;;;;;18.40;4.05;;;;;;;2.16;92.59;100644.94;5034103;28;20029;-77
2021/12/07 04:05:54;;;;;;;15.10;4.63;;;;;;;2.16;92.92;100648.44;5042151;28;20430;-77
2021/12/07 04:08:25;;;;;;;16.10;4.15;;;;;;;2.17;93.07;100649.31;5037255;28;20029;-77
2021/12/07 04:10:51;;;;;;;11.32;3.40;;;;;;;2.14;92.95;100647.66;5030436;28;20033;-77
2021/12/07 04:13:17;;;;;;;16.67;4.03;;;;;;;2.10;92.55;100654.84;5033313;28;20040;-77
2021/12/07 04:15:43;;;;;;;16.13;3.45;;;;;;;2.11;92.62;100653.09;5036528;28;20021;-77
2021/12/07 04:18:08;;;;;;;21.23;3.60;;;;;;;2.13;92.99;100663.63;5042177;28;20045;-77
2021/12/07 04:20:34;;;;;;;15.85;3.70;;;;;;;2.13;93.39;100653.03;5047762;28;20031;-77
2021/12/07 04:22:59;;;;;;;24.38;4.03;;;;;;;2.13;92.92;100669.78;5031622;28;20045;-77
2021/12/07 04:25:25;;;;;;;16.10;4.07;;;;;;;2.12;92.81;100664.53;5042004;28;20029;-77
2021/12/07 04:27:52;;;;;;;14.77;3.75;;;;;;;2.13;93.23;100655.66;5041599;28;20039;-77
2021/12/07 04:30:24;;;;;;;13.43;3.47;;;;;;;2.13;92.86;100663.63;5042272;28;20401;-77
2021/12/07 04:32:50;;;;;;;22.95;4.93;;;;;;;2.16;93.27;100660.84;5041846;28;20059;-77
2021/12/07 04:35:16;;;;;;;16.67;3.60;;;;;;;2.19;93.58;100668.66;5033019;28;20400;-77
2021/12/07 04:37:42;;;;;;;17.40;4.30;;;;;;;2.24;93.62;100661.38;5032446;28;20440;-77
2021/12/07 04:40:11;;;;;;;16.30;3.35;;;;;;;2.28;93.64;100670.94;5031092;28;20033;-77
2021/12/07 04:42:36;;;;;;;14.27;3.53;;;;;;;2.31;93.55;100683.19;5032305;28;20446;-77
2021/12/07 04:45:06;;;;;;;19.40;3.95;;;;;;;2.33;93.49;100687.53;5029666;28;20029;-77
2021/12/07 04:47:52;;;;;;;12.95;3.22;;;;;;;2.35;93.25;100690.97;5044191;28;20071;-77
2021/12/07 04:58:30;;;;;;;16.05;3.83;;;;;;;2.27;92.76;100687.78;5039026;28;20064;-77
2021/12/07 05:00:55;;;;;;;9.82;2.72;;;;;;;2.25;92.91;100679.00;5037312;28;20026;-77
2021/12/07 05:03:21;;;;;;;17.67;3.80;;;;;;;2.25;92.57;100684.31;5041710;28;20081;-77
2021/12/07 05:05:51;;;;;;;13.32;2.95;;;;;;;2.22;92.76;100695.91;5030597;28;20061;-77
2021/12/07 05:08:28;;;;;;;14.23;3.63;;;;;;;2.23;92.73;100705.59;5042404;28;20130;-77
2021/12/07 05:13:26;;;;;;;16.92;4.28;;;;;;;2.22;93.06;100705.66;5040849;28;20041;-77
2021/12/07 05:23:55;;;;;;;16.10;3.55;;;;;;;2.15;93.07;100705.03;5039991;28;20073;-77
2021/12/07 05:24:14;;;;;;;21.40;3.72;;;;;;;2.14;93.28;100713.06;5038809;28;20064;-77
2021/12/07 05:40:12;;;;;;;16.27;4.68;;;;;;;1.90;93.35;100739.63;5052041;28;20409;-77
2021/12/07 05:42:40;;;;;;;18.10;4.63;;;;;;;1.86;93.63;100751.25;5041630;28;20021;-77
2021/12/07 05:45:09;;;;;;;18.02;4.65;;;;;;;1.82;93.12;100755.81;5046166;28;20143;-77
2021/12/07 05:47:34;;;;;;;21.27;5.40;;;;;;;1.80;93.17;100762.09;5031449;28;20040;-77
2021/12/07 05:50:00;;;;;;;15.93;4.38;;;;;;;1.79;92.99;100763.00;5031740;28;20029;-77
2021/12/07 05:52:26;;;;;;;19.27;5.68;;;;;;;1.76;93.05;100771.97;5035759;28;20029;-77
2021/12/07 05:54:51;;;;;;;21.48;5.50;;;;;;;1.73;93.15;100764.13;5036915;28;20414;-77
2021/12/07 05:57:17;;;;;;;14.18;5.15;;;;;;;1.73;93.39;100772.94;5040172;28;20476;-77
2021/12/07 05:59:42;;;;;;;25.08;6.55;;;;;;;1.71;93.18;100780.09;5054626;28;20063;-77
2021/12/07 06:02:08;;;;;;;19.33;5.65;;;;;;;1.70;93.14;100788.94;5054015;28;20056;-77
2021/12/07 06:04:33;;;;;;;20.90;4.93;;;;;;;1.67;93.45;100783.75;5041848;28;20029;-77
2021/12/07 06:06:58;;;;;;;20.45;5.75;;;;;;;1.66;93.20;100776.72;5031651;28;20029;-77
2021/12/07 06:09:24;;;;;;;21.35;6.35;;;;;;;1.69;93.53;100781.91;5047532;28;20032;-77
2021/12/07 06:11:50;;;;;;;17.70;5.30;;;;;;;1.65;93.78;100782.94;5047768;28;20075;-77
2021/12/07 06:14:21;;;;;;;23.02;6.55;;;;;;;1.63;93.46;100789.25;5036476;28;20021;-77
2021/12/07 06:16:46;;;;;;;19.25;6.32;;;;;;;1.64;93.32;100785.66;5037485;28;20060;-77
2021/12/07 06:19:12;;;;;;;18.30;5.43;;;;;;;1.61;93.09;100780.47;5035080;28;20116;-77
2021/12/07 06:21:37;;;;;;;19.23;5.72;;;;;;;1.60;92.99;100776.97;5029984;28;20034;-77
2021/12/07 06:24:02;;;;;;;24.95;6.57;;;;;;;1.59;93.11;100788.47;5034274;28;20032;-77
2021/12/07 06:26:28;;;;;;;22.25;6.65;;;;;;;1.60;93.42;100792.88;5045766;28;20543;-77
2021/12/07 06:28:53;;;;;;;21.83;5.57;;;;;;;1.59;93.62;100793.78;5047996;28;20059;-77
2021/12/07 06:31:18;;;;;;;21.67;5.63;;;;;;;1.59;93.56;100795.56;5055911;28;20029;-77
2021/12/07 06:33:43;;;;;;;22.95;6.47;;;;;;;1.57;93.18;100800.94;5035401;28;20021;-77
2021/12/07 06:36:09;;;;;;;24.08;5.38;;;;;;;1.56;93.59;100807.13;5050440;28;20120;-77
2021/12/07 06:38:35;;;;;;;23.77;5.78;;;;;;;1.53;93.39;100809.91;5034082;28;20037;-77
2021/12/07 06:41:03;;;;;;;23.20;6.45;;;;;;;1.52;93.52;100805.50;5039284;28;20036;-77
2021/12/07 06:43:28;;;;;;;18.08;5.72;;;;;;;1.51;93.37;100798.50;5047524;28;20123;-77
2021/12/07 06:45:54;;;;;;;18.52;5.13;;;;;;;1.52;93.77;100802.84;5033452;28;20125;-77
2021/12/07 06:48:20;;;;;;;24.92;7.05;;;;;;;1.53;93.81;100802.81;5029157;28;20041;-77
2021/12/07 06:50:46;;;;;;;19.48;5.80;;;;;;;1.53;93.44;100788.72;5029134;28;20029;-77
2021/12/07 06:53:11;;;;;;;22.65;6.55;;;;;;;1.54;93.75;100796.59;5033847;28;20055;-77
2021/12/07 06:55:37;;;;;;;20.25;5.95;;;;;;;1.53;93.84;100800.16;5040859;28;20111;-77
2021/12/07 06:58:03;;;;;;;27.40;6.78;;;;;;;1.52;93.97;100801.09;5030853;28;20040;-77
2021/12/07 07:00:29;;;;;;;23.75;5.95;;;;;;;1.51;93.71;100803.81;5035073;28;20128;-77
2021/12/07 07:02:54;;;;;;;23.33;5.32;;;;;;;1.52;93.52;100801.09;5039123;28;20639;-77
2021/12/07 07:05:19;;;;;;;24.38;6.15;;;;;;;1.51;93.88;100806.44;5040395;28;20453;-77
2021/12/07 07:07:45;;;;;;;19.02;6.50;;;;;;;1.52;93.80;100808.16;5046826;28;20124;-77
2021/12/07 07:10:14;;;;;;;18.85;5.85;;;;;;;1.52;93.98;100817.00;5039434;28;20441;-77
2021/12/07 07:12:39;;;;;;;23.07;6.83;;;;;;;1.52;93.52;100816.09;5041128;28;20068;-77
2021/12/07 07:15:06;;;;;;;20.58;6.38;;;;;;;1.52;93.41;100821.41;5030511;28;20065;-77
2021/12/07 07:17:31;;;;;;;18.00;5.68;;;;;;;1.50;93.58;100810.00;5044226;28;20457;-77
2021/12/07 07:19:57;;;;;;;23.08;6.50;;;;;;;1.49;93.94;100806.47;5057174;28;20087;-77
2021/12/07 07:22:22;;;;;;;22.20;6.25;;;;;;;1.50;93.72;100807.38;5053789;28;20400;-78
2021/12/07 07:24:47;;;;;;;20.38;6.28;;;;;;;1.51;93.58;100812.59;5047354;28;20044;-77
2021/12/07 07:27:12;;;;;;;21.33;6.53;;;;;;;1.51;93.83;100817.91;5039946;28;20165;-77
2021/12/07 07:29:38;;;;;;;22.17;5.35;;;;;;;1.51;93.29;100830.28;5045769;28;20121;-77
2021/12/07 07:32:04;;;;;;;19.48;5.47;;;;;;;1.51;93.74;100836.44;5042154;28;20436;-77
2021/12/07 07:34:29;;;;;;;27.67;6.55;;;;;;;1.52;93.70;100834.66;5045283;28;20032;-77
2021/12/07 07:36:54;;;;;;;22.52;7.50;;;;;;;1.55;93.89;100834.53;5045897;28;20032;-77
2021/12/07 07:39:20;;;;;;;19.88;6.75;;;;;;;1.56;94.16;100826.53;5045551;28;20094;-77
2021/12/07 07:41:45;;;;;;;20.80;6.03;;;;;;;1.62;94.32;100832.53;5042522;28;20025;-77
2021/12/07 07:44:11;;;;;;;17.02;5.35;;;;;;;1.63;93.96;100824.53;5040542;28;20021;-77
2021/12/07 07:46:36;;;;;;;24.08;6.53;;;;;;;1.67;94.08;100826.16;5041368;28;20119;-77
2021/12/07 07:49:03;;;;;;;22.30;5.97;;;;;;;1.71;94.08;100825.13;5047079;28;20043;-77
2021/12/07 07:51:29;;;;;;;26.58;6.40;;;;;;;1.72;93.85;100813.59;5047777;28;20083;-77
2021/12/07 07:53:54;;;;;;;21.70;6.78;;;;;;;1.75;93.63;100817.91;5046325;28;20028;-77
2021/12/07 07:56:20;;;;;;;22.95;6.05;;;;;;;1.78;93.63;100816.94;5047774;28;20032;-77
2021/12/07 07:58:46;;;;;;;23.63;6.55;;;;;;;1.82;93.41;100807.97;5049756;28;20365;-77
2021/12/07 08:01:11;;;;;;;22.48;5.93;;;;;;;1.85;93.24;100794.59;5052752;28;20025;-77
2021/12/07 08:03:36;;;;;;;23.80;6.32;;;;;;;1.85;93.09;100808.69;5054843;28;20091;-77
2021/12/07 08:06:02;;;;;;;24.90;7.40;;;;;;;1.84;92.89;100806.97;5045197;28;20049;-77
2021/12/07 08:08:27;;;;;;;18.55;5.72;;;;;;;1.86;93.10;100814.84;5065401;28;20104;-77
2021/12/07 08:10:53;;;;;;;19.25;5.55;;;;;;;1.86;92.94;100814.84;5049032;28;20053;-77
2021/12/07 08:13:19;;;;;;;17.65;5.93;;;;;;;1.85;92.68;100821.94;5040728;28;20028;-77
2021/12/07 08:15:46;;;;;;;23.50;6.63;;;;;;;1.85;92.89;100819.31;5033020;28;20388;-77
2021/12/07 08:18:12;;;;;;;21.35;6.07;;;;;;;1.88;92.89;100828.94;5040626;28;20040;-77
2021/12/07 08:20:39;;;;;;;21.00;6.50;;;;;;;1.89;92.52;100833.31;5049488;28;20099;-77
2021/12/07 08:23:04;;;;;;;20.20;5.70;;;;;;;1.87;92.79;100838.66;5068852;28;20032;-77
2021/12/07 08:25:35;;;;;;;20.33;5.40;;;;;;;1.89;92.53;100847.41;5067593;28;20029;-77
2021/12/07 08:28:01;;;;;;;22.13;6.25;;;;;;;1.88;92.77;100850.97;5067589;28;20067;-77
2021/12/07 08:30:26;;;;;;;21.65;4.95;;;;;;;1.88;92.78;100847.47;5057537;28;20060;-77
2021/12/07 08:32:52;;;;;;;20.95;6.28;;;;;;;1.87;92.36;100856.34;5049172;28;20032;-77
2021/12/07 08:35:19;;;;;;;24.38;5.13;;;;;;;1.88;92.43;100858.94;5057712;28;20024;-77
2021/12/07 08:37:46;;;;;;;20.75;5.78;;;;;;;1.86;92.53;100859.91;5067633;28;20025;-77
2021/12/07 08:40:14;;;;;;;19.58;5.57;;;;;;;1.87;92.29;100859.00;5067505;28;20054;-77
2021/12/07 08:42:39;;;;;;;25.23;6.57;;;;;;;1.86;92.53;100854.59;5067084;28;20054;-77
2021/12/07 08:45:07;;;;;;;22.02;5.20;;;;;;;1.85;92.41;100861.69;5045992;28;20025;-77
2021/12/07 08:47:33;;;;;;;20.42;4.85;;;;;;;1.87;92.60;100856.34;5046207;28;20107;-77
2021/12/07 08:49:58;;;;;;;13.80;4.97;;;;;;;1.87;92.31;100849.25;5043624;28;20668;-77
2021/12/07 08:52:24;;;;;;;16.20;5.13;;;;;;;1.90;92.65;100848.28;5051506;28;20108;-77
2021/12/07 09:00:02;;;;;;;11.20;4.32;;;;;;;2.00;92.13;100827.59;5059328;28;20551;-77
2021/12/07 09:02:28;;;;;;;17.40;4.10;;;;;;;2.01;92.71;100819.59;5052620;28;20107;-77
2021/12/07 09:04:54;;;;;;;16.05;4.70;;;;;;;2.06;92.43;100822.06;5057109;28;20603;-77
2021/12/07 09:07:21;;;;;;;15.70;4.93;;;;;;;2.11;92.16;100812.16;5052099;28;20017;-77
2021/12/07 09:09:47;;;;;;;17.15;4.63;;;;;;;2.15;92.30;100810.22;5046966;28;20488;-77
2021/12/07 09:12:15;;;;;;;22.20;5.47;;;;;;;2.19;92.26;100817.16;5046911;28;20033;-77
2021/12/07 09:14:42;;;;;;;18.88;5.60;;;;;;;2.23;92.39;100813.47;5057499;28;20594;-77
2021/12/07 09:17:10;;;;;;;17.58;5.15;;;;;;;2.29;92.26;100809.72;5047482;28;20031;-77
2021/12/07 09:19:35;;;;;;;15.00;4.78;;;;;;;2.31;92.42;100811.34;5045060;28;20083;-77
2021/12/07 09:22:02;;;;;;;18.02;4.65;;;;;;;2.34;92.36;100813.03;5055375;28;20572;-77
2021/12/07 09:24:27;;;;;;;15.85;4.35;;;;;;;2.35;91.66;100820.91;5051788;28;20075;-77
2021/12/07 09:26:53;;;;;;;19.05;5.53;;;;;;;2.38;91.63;100819.94;5045513;28;20056;-77
2021/12/07 09:29:19;;;;;;;16.05;4.88;;;;;;;2.40;91.82;100813.66;5053311;28;20097;-77
2021/12/07 09:31:45;;;;;;;25.42;5.18;;;;;;;2.43;91.34;100816.19;5042154;28;20029;-77
2021/12/07 09:34:11;;;;;;;22.73;5.82;;;;;;;2.44;91.87;100815.25;5041652;28;20048;-77
2021/12/07 09:36:38;;;;;;;16.02;4.70;;;;;;;2.47;91.59;100810.75;5040998;28;20029;-77
2021/12/07 09:39:05;;;;;;;24.85;5.07;;;;;;;2.48;91.49;100812.50;5047520;28;20040;-77
2021/12/07 09:41:30;;;;;;;17.58;4.95;;;;;;;2.50;91.54;100813.28;5043090;28;20031;-77
2021/12/07 09:43:56;;;;;;;16.75;5.05;;;;;;;2.54;91.27;100820.19;5044314;28;20384;-77
2021/12/07 09:46:22;;;;;;;20.20;5.25;;;;;;;2.58;91.39;100817.34;5050728;28;20033;-77
2021/12/07 09:48:48;;;;;;;16.52;4.20;;;;;;;2.60;91.52;100818.13;5044105;28;20511;-77
2021/12/07 09:51:16;;;;;;;19.02;5.53;;;;;;;2.64;91.51;100818.03;5045688;28;20044;-77
2021/12/07 09:53:44;;;;;;;21.02;5.93;;;;;;;2.67;90.78;100823.22;5044791;28;20032;-77
2021/12/07 09:56:09;;;;;;;18.63;4.75;;;;;;;2.71;91.20;100814.19;5047229;28;20032;-77
2021/12/07 09:58:36;;;;;;;22.77;6.55;;;;;;;2.72;90.89;100814.13;5047575;28;20041;-77
2021/12/07 10:01:05;;;;;;;19.10;4.80;;;;;;;2.75;91.46;100800.75;5048320;28;20736;-77
2021/12/07 10:03:31;;;;;;;15.98;4.45;;;;;;;2.76;90.99;100805.09;5051606;28;20029;-77
2021/12/07 10:05:57;;;;;;;22.63;5.75;;;;;;;2.80;91.17;100804.06;5046234;28;20032;-77
2021/12/07 10:08:22;;;;;;;15.85;4.57;;;;;;;2.85;90.86;100803.00;5043420;28;20025;-77
2021/12/07 10:10:54;;;;;;;20.00;5.30;;;;;;;2.86;91.01;100800.28;5042103;28;20040;-77
2021/12/07 10:13:21;;;;;;;19.00;5.60;;;;;;;2.89;90.83;100802.81;5047188;28;20026;-77
2021/12/07 10:15:47;;;;;;;18.02;4.90;;;;;;;2.93;90.55;100792.94;5043537;28;20480;-77
2021/12/07 10:18:16;;;;;;;19.13;5.47;;;;;;;2.95;90.65;100783.97;5045526;28;20025;-77
2021/12/07 10:20:46;;;;;;;17.42;4.82;;;;;;;3.00;90.31;100778.44;5051542;28;20052;-77
2021/12/07 10:23:15;;;;;;;16.38;4.50;;;;;;;3.04;90.24;100782.72;5046146;28;20029;-77
2021/12/07 10:25:46;;;;;;;16.25;5.00;;;;;;;3.07;90.28;100790.53;5046271;28;20044;-77
2021/12/07 10:28:36;;;;;;;12.18;3.58;;;;;;;3.14;90.51;100781.38;5045450;28;20039;-77
2021/12/07 10:31:30;;;;;;;15.80;4.25;;;;;;;3.20;90.26;100782.91;5044885;28;20068;-77
2021/12/07 10:34:00;;;;;;;20.08;5.75;;;;;;;3.26;90.65;100784.44;5043021;28;20032;-77
2021/12/07 10:36:29;;;;;;;16.33;4.35;;;;;;;3.30;90.34;100775.41;5042232;28;20033;-77
2021/12/07 10:39:08;;;;;;;20.88;4.90;;;;;;;3.36;89.94;100775.13;5044179;28;20048;-77
2021/12/07 10:41:37;;;;;;;19.02;4.20;;;;;;;3.38;89.29;100773.25;5048996;28;20051;-77
2021/12/07 10:44:15;;;;;;;23.00;5.60;;;;;;;3.41;89.80;100759.88;5047324;28;20028;-77
2021/12/07 10:46:56;;;;;;;23.20;5.43;;;;;;;3.43;89.34;100749.16;5042220;28;20106;-77
2021/12/07 10:49:46;;;;;;;20.90;4.78;;;;;;;3.46;89.77;100743.72;5043541;28;20032;-77
2021/12/07 10:52:24;;;;;;;;;;;;;;;3.54;90.18;100746.84;5039846;28;20167;-77
2021/12/07 10:55:00;;;;;;;21.38;6.63;;;;;;;3.55;89.28;100737.97;5040887;28;19992;-77
2021/12/07 10:57:34;;;;;;;19.02;5.70;;;;;;;3.56;88.51;100745.00;5042786;28;20039;-77
2021/12/07 11:00:15;;;;;;;18.98;5.15;;;;;;;3.59;88.83;100730.72;5045607;28;20468;-77
2021/12/07 11:02:44;;;;;;;17.77;4.90;;;;;;;3.60;87.85;100729.78;5060796;28;20063;-77
2021/12/07 11:05:15;;;;;;;20.13;5.18;;;;;;;3.61;88.51;100715.56;5045266;28;20029;-77
2021/12/07 11:07:40;;;;;;;20.85;5.90;;;;;;;3.66;88.81;100700.25;5045895;28;20038;-77
2021/12/07 11:10:15;;;;;;;19.48;5.68;;;;;;;3.70;88.34;100698.31;5045111;28;20032;-77
2021/12/07 11:12:59;;;;;;;17.08;4.50;;;;;;;3.73;88.94;100704.34;5041462;28;20112;-77
2021/12/07 11:15:27;;;;;;;22.35;6.32;;;;;;;3.74;88.07;100690.13;5045761;28;20033;-77
2021/12/07 11:17:56;;;;;;;24.73;5.95;;;;;;;3.77;87.65;100689.97;5043964;28;20036;-77
2021/12/07 11:20:21;;;;;;;18.00;5.60;;;;;;;3.80;87.43;100686.31;5043917;28;20052;-77
2021/12/07 11:22:55;;;;;;;17.50;4.90;;;;;;;3.84;88.08;100683.44;5044571;28;20094;-77
2021/12/07 11:25:53;;;;;;;19.55;5.05;;;;;;;3.88;87.10;100683.28;5043538;28;20033;-77
2021/12/07 11:31:14;;;;;;;20.15;5.82;;;;;;;3.96;87.08;100683.78;5043814;28;20527;-77
2021/12/07 11:33:40;;;;;;;18.33;5.32;;;;;;;4.00;86.68;100686.22;5049872;28;20051;-77
2021/12/07 11:36:34;;;;;;;21.83;6.55;;;;;;;4.02;86.94;100678.16;5043676;28;20111;-77
2021/12/07 11:39:00;;;;;;;17.20;5.90;;;;;;;4.04;86.82;100678.94;5041170;28;20118;-77
2021/12/07 11:41:33;;;;;;;21.05;6.35;;;;;;;4.06;86.68;100677.09;5044487;28;20140;-77
2021/12/07 11:44:04;;;;;;;24.10;7.63;;;;;;;4.07;86.33;100676.16;5042498;28;20029;-77
2021/12/07 11:46:31;;;;;;;23.05;7.10;;;;;;;4.09;86.07;100679.59;5040000;28;20455;-77
2021/12/07 11:49:06;;;;;;;23.05;8.25;;;;;;;4.11;85.65;100666.22;5056131;28;20390;-77
2021/12/07 11:51:31;;;;;;;23.48;7.22;;;;;;;4.11;85.38;100658.25;5043975;28;20094;-77
2021/12/07 11:53:57;;;;;;;26.83;6.55;;;;;;;4.13;84.55;100659.91;5042732;28;20045;-77
2021/12/07 11:56:22;;;;;;;21.60;6.40;;;;;;;4.17;85.70;100658.81;5041956;28;20058;-77
2021/12/07 11:58:48;;;;;;;21.17;6.07;;;;;;;4.20;85.61;100655.13;5050889;28;20032;-77
2021/12/07 12:01:13;;;;;;;18.95;5.95;;;;;;;4.24;84.72;100643.38;5046574;28;20088;-77
2021/12/07 12:03:38;;;;;;;16.95;5.15;;;;;;;4.26;84.77;100641.53;5045278;28;20583;-77
2021/12/07 12:06:05;;;;;;;21.27;5.63;;;;;;;4.29;84.80;100637.81;5044341;28;20104;-77
2021/12/07 12:08:30;;;;;;;18.67;5.75;;;;;;;4.31;84.68;100635.97;5044298;28;20124;-77
2021/12/07 12:11:02;;;;;;;21.38;5.95;;;;;;;4.33;84.19;100634.97;5044132;28;20040;-77
2021/12/07 12:13:33;;;;;;;16.95;4.70;;;;;;;4.34;84.71;100623.34;5043707;28;20044;-77
2021/12/07 12:16:20;;;;;;;19.67;5.35;;;;;;;4.37;83.72;100623.19;5044273;28;20076;-77
2021/12/07 12:19:10;;;;;;;17.85;4.88;;;;;;;4.43;84.42;100621.19;5047811;28;20059;-77
2021/12/07 12:21:46;;;;;;;;;;;;;;;4.49;85.06;100618.19;5042592;28;20210;-77
2021/12/07 12:24:33;;;;;;;21.63;5.40;;;;;;;4.48;84.39;100613.81;5038879;28;19916;-77
2021/12/07 12:27:07;;;;;;;17.10;4.65;;;;;;;4.51;83.61;100603.88;5051108;28;20079;-77
2021/12/07 12:29:35;;;;;;;20.13;3.92;;;;;;;4.51;83.37;100595.00;5052251;28;20435;-77
2021/12/07 12:32:00;;;;;;;16.95;4.53;;;;;;;4.53;82.48;100591.34;5045901;28;20029;-77
2021/12/07 12:34:31;;;;;;;13.50;4.30;;;;;;;4.55;83.43;100584.16;5043935;28;20086;-77
2021/12/07 12:37:16;;;;;;;15.13;4.85;;;;;;;4.61;84.00;100576.78;5047878;28;20041;-77
2021/12/07 12:39:58;;;;;;;17.13;4.50;;;;;;;4.63;82.82;100577.56;5044683;28;20048;-77
2021/12/07 12:42:31;;;;;;;13.82;3.80;;;;;;;4.67;82.65;100568.44;5042435;28;20036;-77
2021/12/07 12:45:28;;;;;;;17.77;4.10;;;;;;;4.66;82.90;100567.59;5051722;28;20037;-77
2021/12/07 12:48:00;;;;;;;14.82;3.83;;;;;;;4.68;83.15;100543.56;5039923;28;20039;-77
2021/12/07 12:50:33;;;;;;;16.65;4.20;;;;;;;4.68;82.45;100543.56;5041613;28;20269;-77
2021/12/07 12:53:21;;;;;;;15.55;4.10;;;;;;;4.71;83.06;100535.41;5037436;28;20033;-77
2021/12/07 12:55:50;;;;;;;18.75;3.53;;;;;;;4.70;82.45;100518.59;5042007;28;20342;-77
2021/12/07 12:58:18;;;;;;;18.77;3.60;;;;;;;4.72;82.51;100503.38;5043663;28;20033;-77
2021/12/07 13:01:01;;;;;;;14.52;3.55;;;;;;;4.73;82.83;100496.28;5043400;28;20381;-77
2021/12/07 13:04:04;;;;;;;10.85;2.88;;;;;;;4.74;82.15;100495.31;5042506;28;20400;-77
2021/12/07 13:06:33;;;;;;;14.15;3.70;;;;;;;4.75;81.80;100473.06;5041743;28;20033;-77
2021/12/07 13:09:02;;;;;;;13.77;3.35;;;;;;;4.76;81.51;100463.28;5042319;28;20036;-77
2021/12/07 13:11:35;;;;;;;14.13;3.30;;;;;;;4.79;81.20;100442.69;5045958;28;20041;-77